Time;durP1;ratioP1;P1;durP2;ratioP2;P2;SDS_P1;SDS_P2;PMS_P1;PMS_P2;Temp;Humidity;BMP_temperature;BMP_pressure;BME280_temperature;BME280_humidity;BME280_pressure;Samples;Min_cycle;Max_cycle;Signal;HPM_P1;HPM_P2
2023/08/23 00:00:32;;;;;;;5.93;5.55;;;;;;;16.08;100.00;101336.25;6071603;23;20014;-69
2023/08/23 00:02:59;;;;;;;5.70;5.40;;;;;;;16.41;100.00;101400.38;6070561;23;20619;-68
2023/08/23 00:05:25;;;;;;;5.63;5.32;;;;;;;16.18;100.00;101367.44;6085839;23;20028;-69
2023/08/23 00:07:54;;;;;;;6.30;5.90;;;;;;;16.40;100.00;101415.44;6078564;23;20109;-69
2023/08/23 00:10:20;;;;;;;5.80;5.50;;;;;;;16.37;100.00;101415.59;6081645;23;20025;-69
2023/08/23 00:12:49;;;;;;;6.30;5.90;;;;;;;16.08;100.00;101375.97;6084047;23;20033;-69
2023/08/23 00:15:16;;;;;;;5.95;5.55;;;;;;;16.23;100.00;101407.72;6058389;23;20078;-69
2023/08/23 00:17:42;;;;;;;5.85;5.45;;;;;;;16.35;100.00;101428.94;6087043;23;20098;-69
2023/08/23 00:20:09;;;;;;;6.45;6.00;;;;;;;16.21;100.00;101393.72;6086144;23;20013;-69
2023/08/23 00:22:36;;;;;;;6.13;5.75;;;;;;;16.32;100.00;101417.72;6059566;23;20028;-69
2023/08/23 00:25:02;;;;;;;6.05;5.65;;;;;;;16.08;100.00;101372.50;6084330;23;20018;-69
2023/08/23 00:27:29;;;;;;;6.00;5.60;;;;;;;16.25;100.00;101401.38;6076583;23;20077;-69
2023/08/23 00:29:55;;;;;;;12.30;5.85;;;;;;;16.13;100.00;101392.41;6083009;23;20568;-69
2023/08/23 00:32:22;;;;;;;6.80;6.00;;;;;;;16.20;100.00;101416.72;6086002;23;20041;-69
2023/08/23 00:34:48;;;;;;;6.13;5.72;;;;;;;15.72;100.00;101350.03;6083644;23;20589;-69
2023/08/23 00:37:15;;;;;;;6.13;5.70;;;;;;;16.08;100.00;101436.03;6081468;23;20042;-69
2023/08/23 00:39:41;;;;;;;6.22;5.82;;;;;;;16.09;100.00;101427.13;6084551;23;20093;-69
2023/08/23 00:42:08;;;;;;;6.25;5.85;;;;;;;16.07;100.00;101421.94;6084569;23;20032;-69
2023/08/23 00:44:34;;;;;;;6.05;5.75;;;;;;;16.05;100.00;101415.03;6082750;23;20026;-69
2023/08/23 00:47:01;;;;;;;6.35;5.95;;;;;;;16.07;100.00;101423.75;6081517;23;20034;-68
2023/08/23 00:49:33;;;;;;;6.70;6.10;;;;;;;15.64;100.00;101349.69;6059789;23;20029;-68
2023/08/23 00:52:02;;;;;;;;;;;;;;;15.97;100.00;101420.81;6085053;23;20029;-68
2023/08/23 00:54:28;;;;;;;6.55;6.05;;;;;;;15.92;100.00;101437.00;6083462;23;19916;-68
2023/08/23 00:56:59;;;;;;;6.35;5.88;;;;;;;15.88;100.00;101426.72;6060339;23;20079;-68
2023/08/23 00:59:25;;;;;;;5.97;5.57;;;;;;;15.67;100.00;101391.81;6086940;23;20032;-69
2023/08/23 01:01:52;;;;;;;6.85;5.68;;;;;;;15.88;100.00;101430.19;6085166;23;20527;-69
2023/08/23 01:04:19;;;;;;;6.15;5.75;;;;;;;15.82;100.00;101422.66;6085011;23;20905;-69
2023/08/23 01:06:56;;;;;;;6.15;5.75;;;;;;;15.73;100.00;101424.06;6085020;23;20026;-69
2023/08/23 01:09:40;;;;;;;5.78;5.43;;;;;;;15.69;100.00;101422.50;6084989;23;20020;-68
2023/08/23 01:12:21;;;;;;;6.00;5.50;;;;;;;15.50;100.00;101390.22;6084750;23;20098;-67
2023/08/23 01:14:59;;;;;;;6.07;5.68;;;;;;;15.49;100.00;101396.44;6053796;23;20681;-69
2023/08/23 01:17:27;;;;;;;6.10;5.70;;;;;;;15.61;100.00;101427.44;6085310;23;20027;-69
2023/08/23 01:19:56;;;;;;;5.97;5.68;;;;;;;15.61;100.00;101429.25;6069790;23;20039;-70
2023/08/23 01:22:23;;;;;;;6.35;5.95;;;;;;;15.60;100.00;101431.03;6089878;23;20026;-69
2023/08/23 01:24:51;;;;;;;5.85;5.30;;;;;;;15.65;100.00;101436.88;6060957;23;20101;-70
2023/08/23 01:27:18;;;;;;;5.60;5.30;;;;;;;15.42;100.00;101397.78;6065837;23;20253;-71
2023/08/23 01:29:45;;;;;;;5.90;5.53;;;;;;;15.59;100.00;101429.31;6087391;23;20130;-68
2023/08/23 01:32:24;;;;;;;6.05;5.65;;;;;;;15.59;100.00;101425.84;6090474;23;20026;-69
2023/08/23 01:34:57;;;;;;;5.70;5.35;;;;;;;15.57;100.00;101428.56;6091349;23;20025;-69
2023/08/23 01:37:26;;;;;;;6.10;5.68;;;;;;;15.57;100.00;101423.28;6089881;23;20461;-69
2023/08/23 01:39:53;;;;;;;6.03;5.63;;;;;;;14.52;100.00;101264.84;6086630;23;20057;-69
2023/08/23 01:42:21;;;;;;;5.93;5.47;;;;;;;15.43;100.00;101417.97;6089510;23;20414;-69
2023/08/23 01:44:50;;;;;;;5.50;5.20;;;;;;;15.40;100.00;101420.84;6066838;23;20423;-69
2023/08/23 01:47:18;;;;;;;5.93;5.53;;;;;;;15.35;100.00;101421.09;6065242;23;20077;-68
2023/08/23 01:49:45;;;;;;;5.80;5.50;;;;;;;15.03;100.00;101365.72;6087993;23;20036;-68
2023/08/23 01:52:11;;;;;;;6.13;5.53;;;;;;;15.30;100.00;101410.81;6089461;23;20034;-68
2023/08/23 01:54:38;;;;;;;6.07;5.68;;;;;;;15.29;100.00;101413.53;6064075;23;20034;-68
2023/08/23 01:57:04;;;;;;;5.97;5.47;;;;;;;15.28;100.00;101419.78;6088645;23;20652;-68
2023/08/23 01:59:31;;;;;;;6.38;5.63;;;;;;;15.23;100.00;101422.69;6087815;23;20037;-68
2023/08/23 02:01:57;;;;;;;6.07;5.68;;;;;;;15.19;100.00;101430.91;6087083;23;20086;-69
2023/08/23 02:04:24;;;;;;;5.65;5.30;;;;;;;15.18;100.00;101434.50;6090230;23;20596;-69
2023/08/23 02:06:50;;;;;;;5.65;5.35;;;;;;;15.16;100.00;101432.78;6084810;23;20109;-71
2023/08/23 02:09:17;;;;;;;5.93;5.53;;;;;;;15.15;100.00;101431.09;6086497;23;20099;-68
2023/08/23 02:11:43;;;;;;;5.70;5.30;;;;;;;15.15;100.00;101436.38;6062197;23;20052;-69
2023/08/23 02:14:10;;;;;;;5.65;5.25;;;;;;;14.95;100.00;101412.91;6085732;23;20527;-69
2023/08/23 02:16:36;;;;;;;5.63;5.22;;;;;;;15.14;100.00;101441.75;6086114;23;20513;-69
2023/08/23 02:19:02;;;;;;;5.78;5.38;;;;;;;15.11;100.00;101440.16;6092990;23;20085;-69
2023/08/23 02:21:29;;;;;;;5.82;5.53;;;;;;;15.08;100.00;101435.03;6094294;23;20017;-68
2023/08/23 02:23:56;;;;;;;5.78;5.38;;;;;;;14.96;100.00;101433.13;6088704;23;20089;-69
2023/08/23 02:26:22;;;;;;;6.50;6.00;;;;;;;14.99;100.00;101438.22;6083590;23;20010;-69
2023/08/23 02:28:49;;;;;;;8.90;5.68;;;;;;;15.02;100.00;101461.00;6066845;23;20838;-70
2023/08/23 02:31:15;;;;;;;6.13;5.72;;;;;;;15.00;100.00;101439.09;6084968;23;20085;-71
2023/08/23 02:33:42;;;;;;;5.70;5.40;;;;;;;14.99;100.00;101443.50;6088471;23;20040;-68
2023/08/23 02:36:08;;;;;;;5.88;5.57;;;;;;;14.50;100.00;101362.66;6087100;23;20129;-69
2023/08/23 02:38:35;;;;;;;6.10;5.70;;;;;;;14.83;100.00;101432.97;6087836;23;20036;-69
2023/08/23 02:41:01;;;;;;;6.70;6.13;;;;;;;14.68;100.00;101410.09;6060729;23;20018;-68
2023/08/23 02:43:27;;;;;;;5.90;5.43;;;;;;;14.70;100.00;101417.00;6059670;23;20040;-69
2023/08/23 02:45:54;;;;;;;6.03;5.63;;;;;;;14.80;100.00;101429.69;6056964;23;20417;-68
2023/08/23 02:48:20;;;;;;;6.22;5.72;;;;;;;14.80;100.00;101429.69;6094750;23;20009;-68
2023/08/23 02:50:47;;;;;;;7.28;5.55;;;;;;;14.78;100.00;101421.00;6092486;23;20026;-69
2023/08/23 02:53:14;;;;;;;5.78;5.43;;;;;;;14.83;100.00;101435.63;6089868;23;20084;-69
2023/08/23 02:55:40;;;;;;;6.38;5.75;;;;;;;14.67;100.00;101406.63;6117873;23;20026;-69
2023/08/23 02:58:06;;;;;;;5.72;5.32;;;;;;;14.67;100.00;101411.91;6119446;23;20088;-68
2023/08/23 03:00:34;;;;;;;5.93;5.53;;;;;;;14.86;100.00;101437.25;6116556;23;20107;-68
2023/08/23 03:03:00;;;;;;;5.75;5.25;;;;;;;14.76;100.00;101413.16;6092619;23;20026;-68
2023/08/23 03:05:27;;;;;;;6.20;5.80;;;;;;;14.86;100.00;101429.31;6115930;23;20025;-70
2023/08/23 03:07:53;;;;;;;6.60;6.10;;;;;;;14.69;100.00;101410.03;6116355;23;20107;-69
2023/08/23 03:10:20;;;;;;;5.90;5.50;;;;;;;14.78;100.00;101427.13;6089181;23;20020;-69
2023/08/23 03:12:46;;;;;;;6.35;5.95;;;;;;;14.38;100.00;101359.88;6093785;23;20100;-69
2023/08/23 03:15:13;;;;;;;6.20;5.78;;;;;;;14.52;100.00;101387.19;6119619;23;20047;-69
2023/08/23 03:17:39;;;;;;;5.75;5.40;;;;;;;13.92;100.00;101310.53;6113091;23;20114;-69
2023/08/23 03:20:06;;;;;;;6.00;5.50;;;;;;;14.52;100.00;101389.81;6113568;23;20013;-68
2023/08/23 03:22:33;;;;;;;6.00;5.60;;;;;;;14.79;100.00;101444.66;6115588;23;20025;-69
2023/08/23 03:24:59;;;;;;;5.97;5.57;;;;;;;14.66;100.00;101436.59;6116880;23;20075;-69
2023/08/23 03:27:26;;;;;;;5.82;5.43;;;;;;;14.59;100.00;101415.91;6093210;23;20056;-70
2023/08/23 03:29:52;;;;;;;5.63;5.32;;;;;;;14.42;100.00;101391.28;6115552;23;20013;-69
2023/08/23 03:32:21;;;;;;;6.00;5.60;;;;;;;14.67;100.00;101432.16;6117411;23;20025;-69
2023/08/23 03:34:48;;;;;;;5.72;5.43;;;;;;;14.58;100.00;101436.19;6086278;23;20037;-68
2023/08/23 03:37:14;;;;;;;6.63;5.30;;;;;;;14.59;100.00;101437.88;6116982;23;20093;-69
2023/08/23 03:39:41;;;;;;;5.93;5.53;;;;;;;14.45;100.00;101427.22;6119656;23;20037;-69
2023/08/23 03:42:07;;;;;;;5.50;5.20;;;;;;;14.59;100.00;101451.09;6089837;23;20026;-69
2023/08/23 03:44:34;;;;;;;6.00;5.45;;;;;;;14.60;100.00;101460.72;6088378;23;20018;-70
2023/08/23 03:47:01;;;;;;;5.90;5.50;;;;;;;14.62;100.00;101455.38;6088489;23;20372;-69
2023/08/23 03:49:27;;;;;;;6.07;5.47;;;;;;;14.42;100.00;101422.13;6091552;23;20021;-69
2023/08/23 03:51:55;;;;;;;5.80;5.40;;;;;;;14.56;100.00;101446.84;6056411;23;20098;-68
2023/08/23 03:54:22;;;;;;;5.47;5.18;;;;;;;14.52;100.00;101429.44;6084651;23;20078;-70
2023/08/23 03:56:48;;;;;;;6.03;5.63;;;;;;;14.52;100.00;101445.28;6086071;23;20025;-69
2023/08/23 03:59:15;;;;;;;5.82;5.47;;;;;;;14.38;100.00;101420.59;6086237;23;20037;-69
2023/08/23 04:01:43;;;;;;;5.80;5.40;;;;;;;14.48;100.00;101445.56;6086553;23;20028;-68
2023/08/23 04:04:10;;;;;;;5.80;5.40;;;;;;;14.46;100.00;101450.91;6055987;23;20046;-68
2023/08/23 04:06:39;;;;;;;5.53;5.22;;;;;;;14.42;100.00;101445.91;6057185;23;20235;-69
2023/08/23 04:09:06;;;;;;;6.07;5.68;;;;;;;14.22;100.00;101415.34;6086637;23;20132;-68
2023/08/23 04:11:33;;;;;;;6.00;5.50;;;;;;;14.21;100.00;101429.47;6060825;23;20014;-69
2023/08/23 04:13:59;;;;;;;5.72;5.43;;;;;;;14.18;100.00;101429.66;6087020;23;20041;-69
2023/08/23 04:16:26;;;;;;;5.70;5.40;;;;;;;14.09;100.00;101428.34;6060585;23;20024;-68
2023/08/23 04:18:54;;;;;;;5.97;5.57;;;;;;;14.21;100.00;101446.13;6082894;23;20034;-69
2023/08/23 04:21:20;;;;;;;6.47;5.22;;;;;;;14.23;100.00;101451.34;6089328;23;20104;-68
2023/08/23 04:23:48;;;;;;;6.43;5.82;;;;;;;14.24;100.00;101440.72;6090363;23;20037;-69
2023/08/23 04:26:14;;;;;;;6.43;5.95;;;;;;;14.25;100.00;101449.47;6088942;23;20020;-69
2023/08/23 04:28:41;;;;;;;7.28;6.60;;;;;;;14.24;100.00;101453.06;6085553;23;20084;-68
2023/08/23 04:31:10;;;;;;;10.73;7.85;;;;;;;13.93;100.00;101404.59;6087120;23;20432;-70
2023/08/23 04:33:38;;;;;;;9.98;7.93;;;;;;;14.26;100.00;101464.38;6085883;23;20042;-67
2023/08/23 04:36:07;;;;;;;11.32;7.43;;;;;;;14.27;100.00;101474.00;6085274;23;20031;-69
2023/08/23 04:38:34;;;;;;;9.50;8.52;;;;;;;14.25;100.00;101476.75;6084821;23;20098;-69
2023/08/23 04:41:02;;;;;;;7.60;6.72;;;;;;;14.26;100.00;101472.31;6088439;23;20016;-69
2023/08/23 04:43:29;;;;;;;6.40;5.90;;;;;;;14.26;100.00;101470.50;6083789;23;20531;-69
2023/08/23 04:45:55;;;;;;;6.55;6.05;;;;;;;14.00;100.00;101429.72;6082277;23;20035;-70
2023/08/23 04:48:23;;;;;;;5.90;5.50;;;;;;;14.27;100.00;101466.06;6097143;23;20948;-69
2023/08/23 04:50:57;;;;;;;6.60;6.00;;;;;;;14.43;100.00;101489.84;6092516;23;20096;-69
2023/08/23 04:53:24;;;;;;;6.30;5.80;;;;;;;14.42;100.00;101470.50;6110974;23;20018;-70
2023/08/23 04:55:56;;;;;;;5.75;5.35;;;;;;;14.45;100.00;101445.72;6112128;23;20073;-69
2023/08/23 04:58:27;;;;;;;6.00;5.60;;;;;;;14.53;100.00;101456.69;6112325;23;20555;-70
2023/08/23 05:01:03;;;;;;;5.93;5.53;;;;;;;14.65;100.00;101450.75;6110889;23;20015;-69
2023/08/23 05:03:30;;;;;;;6.20;5.60;;;;;;;14.91;100.00;101465.13;6106984;23;20021;-69
2023/08/23 05:05:58;;;;;;;6.10;5.70;;;;;;;15.03;100.00;101470.63;6111273;23;20066;-69
2023/08/23 05:08:24;;;;;;;6.13;5.72;;;;;;;15.17;100.00;101462.72;6113057;23;20029;-69
2023/08/23 05:10:52;;;;;;;5.88;5.45;;;;;;;15.32;100.00;101460.97;6085091;23;20040;-69
2023/08/23 05:13:19;;;;;;;6.32;5.82;;;;;;;15.15;100.00;101419.66;6110831;23;20025;-68
2023/08/23 05:15:56;;;;;;;6.60;6.00;;;;;;;15.46;100.00;101434.53;6110645;23;21167;-69
2023/08/23 05:18:23;;;;;;;7.45;6.78;;;;;;;15.53;100.00;101405.88;6083685;23;20192;-68
2023/08/23 05:20:54;;;;;;;6.25;5.75;;;;;;;15.94;100.00;101448.34;6088455;23;20018;-69
2023/08/23 05:23:24;;;;;;;6.97;6.43;;;;;;;15.89;100.00;101413.34;6089318;23;20103;-69
2023/08/23 05:25:52;;;;;;;8.05;6.20;;;;;;;16.24;100.00;101439.41;6111361;23;20231;-69
2023/08/23 05:28:19;;;;;;;7.38;6.68;;;;;;;16.23;100.00;101410.38;6111831;23;20092;-69
2023/08/23 05:30:46;;;;;;;8.30;7.60;;;;;;;16.34;100.00;101400.78;6111781;23;20121;-69
2023/08/23 05:33:13;;;;;;;8.93;7.35;;;;;;;16.29;100.00;101352.53;6114545;23;20050;-69
2023/08/23 05:35:41;;;;;;;8.68;7.22;;;;;;;17.09;100.00;101429.41;6084417;23;20025;-67
2023/08/23 05:38:09;;;;;;;8.13;6.53;;;;;;;17.08;100.00;101345.50;6088100;23;20081;-68
2023/08/23 05:40:37;;;;;;;7.68;7.07;;;;;;;18.14;100.00;101438.03;6110971;23;20526;-69
2023/08/23 05:43:09;;;;;;;9.82;6.63;;;;;;;18.54;100.00;101424.47;6114420;23;20085;-68
2023/08/23 05:45:36;;;;;;;7.28;6.68;;;;;;;18.93;100.00;101399.41;6106878;23;20446;-69
2023/08/23 05:48:03;;;;;;;8.00;7.22;;;;;;;19.23;100.00;101373.22;6110081;23;20576;-69
2023/08/23 05:50:29;;;;;;;9.88;7.43;;;;;;;19.14;94.51;101294.94;6107245;23;20017;-69
2023/08/23 05:52:56;;;;;;;8.27;7.20;;;;;;;19.06;91.37;101244.16;6114903;23;20096;-70
2023/08/23 05:55:22;;;;;;;9.40;7.47;;;;;;;18.35;91.73;101193.81;6112940;23;20042;-70
2023/08/23 05:57:49;;;;;;;7.90;7.20;;;;;;;18.51;92.87;101249.28;6112050;23;20738;-70
2023/08/23 06:00:16;;;;;;;8.40;7.70;;;;;;;18.28;95.76;101274.94;6085417;23;20037;-70
2023/08/23 06:02:43;;;;;;;7.78;7.07;;;;;;;17.81;97.80;101245.66;6110534;23;20108;-70
2023/08/23 06:05:11;;;;;;;7.90;7.30;;;;;;;18.13;100.00;101319.47;6089456;23;20028;-69
2023/08/23 06:07:38;;;;;;;7.03;6.50;;;;;;;18.08;100.00;101334.88;6112741;23;20532;-71
2023/08/23 06:10:05;;;;;;;7.70;6.90;;;;;;;18.30;100.00;101352.75;6115849;23;20012;-69
2023/08/23 06:12:31;;;;;;;7.05;6.40;;;;;;;18.31;100.00;101347.31;6116827;23;20077;-70
2023/08/23 06:14:58;;;;;;;7.35;6.75;;;;;;;17.89;100.00;101274.31;6116285;23;20004;-69
2023/08/23 06:17:28;;;;;;;7.85;7.18;;;;;;;18.14;100.00;101339.75;6092487;23;20025;-69
2023/08/23 06:19:54;;;;;;;7.63;7.13;;;;;;;18.33;100.00;101360.50;6108802;23;20050;-69
2023/08/23 06:22:22;;;;;;;8.48;7.50;;;;;;;18.45;100.00;101356.06;6091157;23;20077;-69
2023/08/23 06:24:48;;;;;;;7.75;7.03;;;;;;;18.26;100.00;101304.31;6071949;23;20093;-70
2023/08/23 06:27:14;;;;;;;7.03;6.53;;;;;;;17.43;100.00;101145.81;6114785;23;20781;-69
2023/08/23 06:29:41;;;;;;;7.60;7.00;;;;;;;18.70;100.00;101350.59;6079389;23;20114;-69
2023/08/23 06:32:08;;;;;;;9.27;7.82;;;;;;;18.40;100.00;101300.63;6118525;23;20061;-68
2023/08/23 06:34:35;;;;;;;8.00;7.20;;;;;;;18.72;100.00;101361.97;6084032;23;20074;-69
2023/08/23 06:37:02;;;;;;;8.30;7.60;;;;;;;18.84;100.00;101354.91;6117827;23;20655;-69
2023/08/23 06:39:29;;;;;;;8.70;7.88;;;;;;;18.79;100.00;101329.59;6089059;23;20022;-70
2023/08/23 06:42:00;;;;;;;9.27;7.85;;;;;;;19.22;100.00;101345.75;6113889;23;20032;-70
2023/08/23 06:44:27;;;;;;;8.00;7.30;;;;;;;19.22;100.00;101337.75;6088993;23;20030;-70
2023/08/23 06:46:53;;;;;;;7.93;7.32;;;;;;;19.31;99.67;101323.72;6114685;23;20041;-70
2023/08/23 06:49:22;;;;;;;8.50;7.72;;;;;;;19.46;97.76;101313.66;6115057;23;20017;-69
2023/08/23 06:51:48;;;;;;;8.32;7.43;;;;;;;19.48;98.08;101318.88;6113465;23;20108;-70
2023/08/23 06:54:17;;;;;;;11.13;7.88;;;;;;;19.65;97.53;101321.03;6118197;23;20025;-70
2023/08/23 06:56:46;;;;;;;7.88;7.38;;;;;;;19.69;95.08;101300.34;6114738;23;20063;-70
2023/08/23 06:59:12;;;;;;;8.57;6.93;;;;;;;19.86;94.24;101296.31;6112896;23;20048;-69
2023/08/23 07:01:39;;;;;;;7.45;6.63;;;;;;;20.03;93.32;101294.94;6091190;23;20029;-70
2023/08/23 07:04:05;;;;;;;9.15;7.70;;;;;;;20.03;90.78;101249.66;6112805;23;20077;-71
2023/08/23 07:06:32;;;;;;;7.65;7.10;;;;;;;20.21;90.90;101273.91;6084474;23;20117;-70
2023/08/23 07:08:58;;;;;;;7.38;6.78;;;;;;;20.08;89.25;101218.13;6114781;23;20026;-70
2023/08/23 07:11:25;;;;;;;7.43;6.80;;;;;;;20.32;87.38;101228.53;6111146;23;20377;-70
2023/08/23 07:13:51;;;;;;;7.55;6.93;;;;;;;20.58;86.89;101252.13;6114565;23;20739;-71
2023/08/23 07:16:18;;;;;;;9.65;7.70;;;;;;;20.46;85.92;101203.34;6116793;23;20047;-70
2023/08/23 07:18:44;;;;;;;8.20;7.25;;;;;;;20.29;85.24;101164.84;6116741;23;20484;-69
2023/08/23 07:21:16;;;;;;;7.78;7.03;;;;;;;20.56;84.77;101204.25;6107227;23;20623;-73
2023/08/23 07:23:43;;;;;;;8.38;7.50;;;;;;;20.57;85.81;101245.09;6110557;23;20566;-70
2023/08/23 07:26:09;;;;;;;8.25;7.13;;;;;;;20.76;86.42;101263.06;6115134;23;20677;-69
2023/08/23 07:28:36;;;;;;;10.38;8.73;;;;;;;20.87;85.69;101250.47;6094717;23;20030;-70
2023/08/23 07:31:03;;;;;;;8.43;7.57;;;;;;;20.82;84.82;101206.50;6111855;23;20595;-69
2023/08/23 07:33:29;;;;;;;8.88;7.97;;;;;;;21.19;83.47;101222.78;6114576;23;20431;-69
2023/08/23 07:35:57;;;;;;;9.43;8.60;;;;;;;20.17;82.16;101028.16;6113001;23;20017;-68
2023/08/23 07:38:25;;;;;;;8.75;7.75;;;;;;;21.31;81.71;101211.00;6120863;23;20036;-69
2023/08/23 07:40:57;;;;;;;14.77;8.60;;;;;;;21.21;80.92;101161.25;6116967;23;20043;-69
2023/08/23 07:43:24;;;;;;;8.07;7.43;;;;;;;21.67;80.01;101207.88;6088496;23;20507;-69
2023/08/23 07:45:53;;;;;;;8.23;7.53;;;;;;;21.79;79.29;101176.47;6111127;23;20025;-69
2023/08/23 07:48:19;;;;;;;10.10;8.38;;;;;;;21.91;78.38;101170.88;6111801;23;20024;-69
2023/08/23 07:50:53;;;;;;;9.52;8.68;;;;;;;22.01;78.52;101170.88;6113361;23;20025;-70
2023/08/23 07:53:19;;;;;;;8.13;7.53;;;;;;;21.89;76.63;101107.88;6111552;23;20029;-69
2023/08/23 07:55:46;;;;;;;9.00;8.27;;;;;;;22.28;75.89;101151.41;6107495;23;20048;-70
2023/08/23 07:58:13;;;;;;;8.73;8.00;;;;;;;22.22;76.24;101130.56;6114592;23;20070;-68
2023/08/23 08:00:40;;;;;;;9.82;8.93;;;;;;;22.55;74.72;101127.50;6112315;23;20091;-69
2023/08/23 08:03:08;;;;;;;9.95;9.00;;;;;;;22.69;72.84;101111.81;6113497;23;20844;-69
2023/08/23 08:05:36;;;;;;;9.90;9.00;;;;;;;22.65;73.34;101113.13;6107519;23;20093;-70
2023/08/23 08:08:03;;;;;;;11.23;8.20;;;;;;;22.78;72.56;101111.91;6113852;23;20057;-70
2023/08/23 08:10:35;;;;;;;9.85;8.90;;;;;;;22.76;73.72;101129.97;6106695;23;20006;-69
2023/08/23 08:13:02;;;;;;;14.63;10.23;;;;;;;22.79;73.05;101141.22;6113690;23;20030;-69
2023/08/23 08:15:31;;;;;;;15.13;9.85;;;;;;;22.63;73.13;101115.09;6111349;23;20075;-69
2023/08/23 08:17:57;;;;;;;10.68;9.75;;;;;;;22.76;73.40;101146.00;6110909;23;20413;-70
2023/08/23 08:20:24;;;;;;;10.68;8.75;;;;;;;23.10;72.78;101167.69;6113282;23;20041;-70
2023/08/23 08:22:52;;;;;;;14.15;10.50;;;;;;;23.15;71.91;101140.44;6110985;23;20008;-69
2023/08/23 08:25:19;;;;;;;9.45;8.40;;;;;;;22.64;71.65;101046.38;6112581;23;20025;-70
2023/08/23 08:27:45;;;;;;;10.07;9.07;;;;;;;23.47;70.48;101154.19;6112377;23;20045;-68
2023/08/23 08:30:13;;;;;;;9.63;8.63;;;;;;;23.73;70.20;101174.81;6113864;23;20104;-68
2023/08/23 08:32:39;;;;;;;9.65;8.85;;;;;;;23.66;70.31;101133.56;6114705;23;20068;-68
2023/08/23 08:35:06;;;;;;;11.20;10.10;;;;;;;23.89;68.75;101116.03;6114331;23;20009;-69
2023/08/23 08:37:33;;;;;;;9.65;8.82;;;;;;;23.86;69.04;101147.66;6111865;23;20018;-68
2023/08/23 08:39:59;;;;;;;15.60;9.80;;;;;;;23.84;68.69;101122.84;6113290;23;20504;-68
2023/08/23 08:42:28;;;;;;;10.50;9.45;;;;;;;23.71;68.10;101085.69;6109784;23;20567;-68
2023/08/23 08:44:56;;;;;;;11.25;9.35;;;;;;;23.74;69.77;101156.91;6085541;23;20029;-68
2023/08/23 08:47:23;;;;;;;9.45;8.55;;;;;;;24.05;67.68;101130.53;6087945;23;20030;-68
2023/08/23 08:49:50;;;;;;;9.18;8.38;;;;;;;23.89;67.71;101108.00;6083472;23;20177;-68
2023/08/23 08:52:19;;;;;;;10.60;8.95;;;;;;;24.47;67.48;101189.63;6070148;23;20092;-67
2023/08/23 08:54:48;;;;;;;12.63;9.18;;;;;;;24.49;66.78;101155.41;6084210;23;20100;-69
2023/08/23 08:57:15;;;;;;;9.57;8.75;;;;;;;24.54;66.76;101152.31;6081231;23;20037;-68
2023/08/23 08:59:43;;;;;;;12.60;9.35;;;;;;;24.59;64.96;101107.03;6082917;23;20640;-68
2023/08/23 09:02:12;;;;;;;10.40;9.35;;;;;;;24.78;64.89;101113.97;6059479;23;20026;-68
2023/08/23 09:04:39;;;;;;;11.88;10.50;;;;;;;24.45;64.18;101045.91;6084880;23;20104;-68
2023/08/23 09:07:06;;;;;;;11.20;10.10;;;;;;;24.52;64.39;101084.53;6059537;23;20037;-68
2023/08/23 09:09:33;;;;;;;15.27;9.52;;;;;;;24.64;63.40;101063.63;6078830;23;20119;-70
2023/08/23 09:12:00;;;;;;;10.20;9.10;;;;;;;24.67;63.10;101026.53;6086400;23;20021;-70
2023/08/23 09:14:28;;;;;;;9.63;8.82;;;;;;;24.87;62.79;101061.97;6086744;23;20100;-67
2023/08/23 09:16:54;;;;;;;12.93;9.55;;;;;;;25.21;62.54;101077.16;6084524;23;20362;-69
2023/08/23 09:19:22;;;;;;;14.82;10.57;;;;;;;24.78;61.91;101014.66;6064789;23;20026;-70
2023/08/23 09:21:49;;;;;;;14.68;9.63;;;;;;;25.06;63.19;101102.97;6086669;23;20019;-71
2023/08/23 09:24:17;;;;;;;13.85;10.20;;;;;;;24.87;61.97;101026.25;6082285;23;20041;-67
2023/08/23 09:26:44;;;;;;;8.90;8.10;;;;;;;25.28;62.34;101090.78;6085024;23;20017;-69
2023/08/23 09:29:12;;;;;;;10.60;9.60;;;;;;;25.41;61.72;101079.53;6082500;23;20101;-67
2023/08/23 09:31:41;;;;;;;12.25;9.25;;;;;;;25.55;61.21;101061.88;6081767;23;20006;-70
2023/08/23 09:34:15;;;;;;;10.20;9.30;;;;;;;25.44;60.25;101015.53;6084321;23;20024;-67
2023/08/23 09:36:42;;;;;;;13.43;9.48;;;;;;;25.81;60.38;101067.91;6082766;23;20048;-69
2023/08/23 09:39:10;;;;;;;10.05;9.15;;;;;;;26.02;59.55;101053.94;6084919;23;20030;-68
2023/08/23 09:41:43;;;;;;;10.40;9.40;;;;;;;25.87;58.20;100983.84;6091501;23;20601;-68
2023/08/23 09:44:27;;;;;;;10.60;9.55;;;;;;;25.68;58.88;100978.88;6086546;23;20022;-68
2023/08/23 09:46:58;;;;;;;12.38;10.05;;;;;;;25.91;58.44;100984.38;6092875;23;20052;-68
2023/08/23 09:49:32;;;;;;;15.48;10.85;;;;;;;25.87;58.84;100996.47;6114453;23;20029;-67
2023/08/23 09:52:04;;;;;;;13.05;10.43;;;;;;;26.07;58.44;100999.63;6091609;23;20029;-74
2023/08/23 09:55:11;;;;;;;17.33;15.60;;;;;;;26.01;57.57;100966.19;6089882;23;20775;-68
2023/08/23 09:58:05;;;;;;;10.48;9.25;;;;;;;26.31;57.23;100987.91;6096281;23;20025;-68
2023/08/23 10:00:33;;;;;;;11.07;9.93;;;;;;;26.35;55.41;100911.19;6115446;23;20624;-65
2023/08/23 10:03:00;;;;;;;11.20;8.98;;;;;;;26.57;56.24;100967.91;6117696;23;20029;-67
2023/08/23 10:05:27;;;;;;;13.13;9.32;;;;;;;26.65;55.34;100960.63;6118943;23;20593;-66
2023/08/23 10:07:56;;;;;;;8.63;7.78;;;;;;;26.57;54.86;100920.28;6124750;23;20025;-66
2023/08/23 10:10:23;;;;;;;9.70;8.80;;;;;;;26.91;54.64;100959.44;6118065;23;20025;-67
2023/08/23 10:12:56;;;;;;;12.15;8.40;;;;;;;26.93;55.26;101011.25;6118184;23;20041;-67
2023/08/23 10:15:29;;;;;;;8.95;8.23;;;;;;;27.13;54.58;101000.84;6115415;23;20465;-68
2023/08/23 10:17:59;;;;;;;13.75;9.43;;;;;;;27.10;54.84;100984.19;6118370;23;20033;-67
2023/08/23 10:20:26;;;;;;;9.73;8.80;;;;;;;26.90;54.37;100932.69;6121316;23;20017;-68
2023/08/23 10:22:55;;;;;;;10.48;8.95;;;;;;;26.74;53.40;100874.41;6121329;23;20436;-68
2023/08/23 10:25:22;;;;;;;10.77;9.55;;;;;;;26.98;53.87;100937.97;6115379;23;20045;-68
2023/08/23 10:27:52;;;;;;;8.05;7.28;;;;;;;27.26;53.96;101011.00;6120500;23;20098;-67
2023/08/23 10:30:25;;;;;;;7.85;7.15;;;;;;;27.22;52.39;100907.28;6092360;23;20028;-68
2023/08/23 10:32:52;;;;;;;7.55;6.90;;;;;;;27.05;53.41;100928.16;6120899;23;20087;-67
2023/08/23 10:35:23;;;;;;;12.55;7.90;;;;;;;26.67;52.21;100856.28;6119123;23;20084;-68
2023/08/23 10:37:52;;;;;;;7.80;7.13;;;;;;;26.65;54.09;100968.72;6124808;23;20018;-67
2023/08/23 10:40:20;;;;;;;8.02;7.43;;;;;;;27.11;54.90;101066.69;6122715;23;20550;-67
2023/08/23 10:42:49;;;;;;;7.03;6.57;;;;;;;27.63;54.02;101079.44;6072198;23;20434;-68
2023/08/23 10:45:16;;;;;;;8.40;7.60;;;;;;;28.18;52.19;101051.19;6118530;23;20045;-69
2023/08/23 10:47:44;;;;;;;7.03;6.60;;;;;;;27.34;51.20;100897.75;6123711;23;20032;-67
2023/08/23 10:50:12;;;;;;;6.65;6.13;;;;;;;27.95;51.49;101012.72;6116835;23;20507;-68
2023/08/23 10:52:39;;;;;;;7.55;6.68;;;;;;;28.08;50.94;100977.78;6100494;23;20090;-68
2023/08/23 10:55:08;;;;;;;7.45;6.95;;;;;;;27.49;50.82;100913.94;6115400;23;20026;-68
2023/08/23 10:57:34;;;;;;;8.52;6.90;;;;;;;28.04;51.03;101007.03;6119319;23;20028;-68
2023/08/23 11:00:02;;;;;;;6.80;6.40;;;;;;;27.87;51.25;100953.44;6119385;23;20029;-69
2023/08/23 11:02:32;;;;;;;6.72;6.22;;;;;;;28.19;49.18;100919.81;6121123;23;20100;-68
2023/08/23 11:04:58;;;;;;;6.75;6.25;;;;;;;28.47;49.70;100962.28;6115530;23;20017;-68
2023/08/23 11:07:26;;;;;;;6.28;5.97;;;;;;;28.15;49.14;100888.84;6118696;23;20021;-65
2023/08/23 11:09:54;;;;;;;6.82;6.32;;;;;;;27.53;49.02;100809.28;6119369;23;20010;-68
2023/08/23 11:12:20;;;;;;;6.80;6.30;;;;;;;27.36;49.41;100838.28;6089457;23;20661;-68
2023/08/23 11:14:46;;;;;;;6.80;6.35;;;;;;;27.72;49.56;100934.56;6117058;23;20041;-67
2023/08/23 11:17:14;;;;;;;6.45;6.00;;;;;;;28.23;48.42;100946.22;6088981;23;20033;-68
2023/08/23 11:19:41;;;;;;;6.15;5.75;;;;;;;28.02;48.99;100914.66;6114746;23;20052;-67
2023/08/23 11:22:08;;;;;;;7.20;6.50;;;;;;;28.40;47.65;100909.03;6113765;23;20028;-68